KSHR/SHR METAR and TAF weather

Enter ICAO airport designator
Station Type Date Time Source
KSHR METAR 2019/04/26 03:53 UTC NOAA

KSHR 260353Z AUTO 18004KT 10SM FEW037 02/01 A3017 RMK AO2 SLP226 T00220006


Station Type Date Time Source
KSHR Decoded METAR 2019/04/26 03:53 UTC NOAA

SHERIDAN COUNTY AIRPORT, WY, United States (KSHR) 44-46N 106-58W 1202M
Apr 25, 2019 - 11:53 PM EDT / 2019.04.26 0353 UTC
Wind: from the S (180 degrees) at 5 MPH (4 KT):0
Visibility: 10 mile(s):0
Sky conditions: mostly clear
Temperature: 36.0 F (2.2 C)
Dew Point: 33.1 F (0.6 C)
Relative Humidity: 89%
Pressure (altimeter): 30.17 in. Hg (1021 hPa)
ob: KSHR 260353Z AUTO 18004KT 10SM FEW037 02/01 A3017 RMK AO2 SLP226 T00220006
cycle: 4

Station Type Date Time Source
KSHR TAF 2019/04/26 04:48 UTC NOAA

TAF
AMD KSHR 260345Z 2604/2624 VRB04KT P6SM SCT040 BKN230
FM261900 32010KT P6SM VCSH SCT050 BKN100

Example: see airport list